sensor_id;sensor_type;location;lat;lon;timestamp;pressure;altitude;pressure_sealevel;temperature;humidity
10718;BME280;13513;42.700;23.124;2022-12-07T00:01:17;92902.56;;;5.93;100.00
10718;BME280;13513;42.700;23.124;2022-12-07T00:03:49;92893.17;;;5.85;100.00
10718;BME280;13513;42.700;23.124;2022-12-07T00:06:20;92891.80;;;5.83;100.00
10718;BME280;13513;42.700;23.124;2022-12-07T00:08:52;92890.34;;;5.87;100.00
10718;BME280;13513;42.700;23.124;2022-12-07T00:11:24;92890.17;;;5.82;100.00
10718;BME280;13513;42.700;23.124;2022-12-07T00:13:56;92889.66;;;5.91;100.00
10718;BME280;13513;42.700;23.124;2022-12-07T00:16:31;92881.58;;;5.75;100.00
10718;BME280;13513;42.700;23.124;2022-12-07T00:19:03;92881.52;;;5.81;100.00
10718;BME280;13513;42.700;23.124;2022-12-07T00:21:36;92881.31;;;5.83;100.00
10718;BME280;13513;42.700;23.124;2022-12-07T00:24:07;92875.70;;;5.88;100.00
10718;BME280;13513;42.700;23.124;2022-12-07T00:26:38;92892.30;;;6.00;100.00
10718;BME280;13513;42.700;23.124;2022-12-07T00:29:18;92885.23;;;5.92;100.00
10718;BME280;13513;42.700;23.124;2022-12-07T00:31:48;92880.84;;;5.86;100.00
10718;BME280;13513;42.700;23.124;2022-12-07T00:34:20;92887.36;;;5.92;100.00
10718;BME280;13513;42.700;23.124;2022-12-07T00:36:53;92882.73;;;5.79;100.00
10718;BME280;13513;42.700;23.124;2022-12-07T00:39:24;92881.00;;;5.82;100.00
10718;BME280;13513;42.700;23.124;2022-12-07T00:41:55;92893.41;;;5.50;100.00
10718;BME280;13513;42.700;23.124;2022-12-07T00:44:26;92893.41;;;5.50;100.00
10718;BME280;13513;42.700;23.124;2022-12-07T00:46:57;92889.20;;;5.58;100.00
10718;BME280;13513;42.700;23.124;2022-12-07T00:49:27;92889.34;;;5.54;100.00
10718;BME280;13513;42.700;23.124;2022-12-07T00:51:58;92884.98;;;5.66;100.00
10718;BME280;13513;42.700;23.124;2022-12-07T00:54:29;92889.27;;;5.61;100.00
10718;BME280;13513;42.700;23.124;2022-12-07T00:57:00;92891.92;;;5.45;100.00
10718;BME280;13513;42.700;23.124;2022-12-07T00:59:31;92890.05;;;5.43;100.00
10718;BME280;13513;42.700;23.124;2022-12-07T01:02:03;92880.38;;;5.44;100.00
10718;BME280;13513;42.700;23.124;2022-12-07T01:04:34;92884.38;;;5.46;100.00
10718;BME280;13513;42.700;23.124;2022-12-07T01:07:05;92884.38;;;5.46;100.00
10718;BME280;13513;42.700;23.124;2022-12-07T01:09:36;92886.47;;;5.38;100.00
10718;BME280;13513;42.700;23.124;2022-12-07T01:12:07;92886.33;;;5.33;100.00
10718;BME280;13513;42.700;23.124;2022-12-07T01:14:38;92886.68;;;5.36;100.00
10718;BME280;13513;42.700;23.124;2022-12-07T01:17:09;92882.19;;;5.43;100.00
10718;BME280;13513;42.700;23.124;2022-12-07T01:19:40;92888.23;;;5.44;100.00
10718;BME280;13513;42.700;23.124;2022-12-07T01:22:11;92881.30;;;5.40;100.00
10718;BME280;13513;42.700;23.124;2022-12-07T01:24:42;92875.67;;;5.61;100.00
10718;BME280;13513;42.700;23.124;2022-12-07T01:27:13;92870.40;;;5.52;100.00
10718;BME280;13513;42.700;23.124;2022-12-07T01:29:45;92871.52;;;5.72;100.00
10718;BME280;13513;42.700;23.124;2022-12-07T01:32:15;92865.46;;;5.71;100.00
10718;BME280;13513;42.700;23.124;2022-12-07T01:34:47;92863.23;;;5.75;100.00
10718;BME280;13513;42.700;23.124;2022-12-07T01:37:18;92850.83;;;5.73;100.00
10718;BME280;13513;42.700;23.124;2022-12-07T01:39:53;92864.48;;;5.81;100.00
10718;BME280;13513;42.700;23.124;2022-12-07T01:42:24;92868.05;;;5.87;100.00
10718;BME280;13513;42.700;23.124;2022-12-07T01:47:51;92862.28;;;5.87;100.00
10718;BME280;13513;42.700;23.124;2022-12-07T01:50:24;92857.56;;;5.87;100.00
10718;BME280;13513;42.700;23.124;2022-12-07T01:52:55;92858.66;;;5.88;100.00
10718;BME280;13513;42.700;23.124;2022-12-07T01:55:27;92853.48;;;5.91;100.00
10718;BME280;13513;42.700;23.124;2022-12-07T01:57:59;92850.19;;;5.95;100.00
10718;BME280;13513;42.700;23.124;2022-12-07T02:00:29;92854.50;;;5.81;100.00
10718;BME280;13513;42.700;23.124;2022-12-07T02:03:07;92855.89;;;5.92;100.00
10718;BME280;13513;42.700;23.124;2022-12-07T02:08:13;92845.38;;;6.01;100.00
10718;BME280;13513;42.700;23.124;2022-12-07T02:10:44;92840.58;;;6.07;100.00
10718;BME280;13513;42.700;23.124;2022-12-07T02:13:19;92843.42;;;6.06;100.00
10718;BME280;13513;42.700;23.124;2022-12-07T02:18:59;92845.75;;;5.96;100.00
10718;BME280;13513;42.700;23.124;2022-12-07T02:21:42;92845.41;;;5.92;100.00
10718;BME280;13513;42.700;23.124;2022-12-07T02:30:20;92832.27;;;5.56;100.00
10718;BME280;13513;42.700;23.124;2022-12-07T02:35:47;92834.53;;;5.44;100.00
10718;BME280;13513;42.700;23.124;2022-12-07T02:38:25;92834.08;;;5.38;100.00
10718;BME280;13513;42.700;23.124;2022-12-07T02:43:49;92829.66;;;5.38;100.00
10718;BME280;13513;42.700;23.124;2022-12-07T02:46:21;92826.58;;;5.23;100.00
10718;BME280;13513;42.700;23.124;2022-12-07T02:48:53;92813.48;;;5.23;100.00
10718;BME280;13513;42.700;23.124;2022-12-07T02:51:29;92825.16;;;5.12;100.00
10718;BME280;13513;42.700;23.124;2022-12-07T02:53:58;92817.91;;;5.23;100.00
10718;BME280;13513;42.700;23.124;2022-12-07T02:59:26;92816.34;;;5.40;100.00
10718;BME280;13513;42.700;23.124;2022-12-07T03:07:05;92815.89;;;5.61;100.00
10718;BME280;13513;42.700;23.124;2022-12-07T03:09:40;92814.72;;;5.66;100.00
10718;BME280;13513;42.700;23.124;2022-12-07T03:12:14;92814.48;;;5.76;100.00
10718;BME280;13513;42.700;23.124;2022-12-07T03:14:55;92821.85;;;5.77;100.00
10718;BME280;13513;42.700;23.124;2022-12-07T03:17:24;92818.80;;;5.80;100.00
10718;BME280;13513;42.700;23.124;2022-12-07T03:19:56;92830.76;;;5.85;100.00
10718;BME280;13513;42.700;23.124;2022-12-07T03:22:27;92818.09;;;5.91;100.00
10718;BME280;13513;42.700;23.124;2022-12-07T03:25:04;92821.80;;;5.65;100.00
10718;BME280;13513;42.700;23.124;2022-12-07T03:27:41;92815.23;;;5.74;100.00
10718;BME280;13513;42.700;23.124;2022-12-07T03:30:20;92818.74;;;5.86;100.00
10718;BME280;13513;42.700;23.124;2022-12-07T03:33:09;92814.88;;;5.89;100.00
10718;BME280;13513;42.700;23.124;2022-12-07T03:35:40;92812.70;;;5.95;100.00
10718;BME280;13513;42.700;23.124;2022-12-07T03:38:31;92813.87;;;5.90;100.00
10718;BME280;13513;42.700;23.124;2022-12-07T03:41:00;92812.39;;;6.03;100.00
10718;BME280;13513;42.700;23.124;2022-12-07T03:43:31;92811.66;;;5.69;100.00
10718;BME280;13513;42.700;23.124;2022-12-07T03:46:17;92815.45;;;5.73;100.00
10718;BME280;13513;42.700;23.124;2022-12-07T03:48:51;92810.07;;;5.68;100.00
10718;BME280;13513;42.700;23.124;2022-12-07T03:51:28;92811.66;;;5.69;100.00
10718;BME280;13513;42.700;23.124;2022-12-07T03:56:33;92802.73;;;5.85;100.00
10718;BME280;13513;42.700;23.124;2022-12-07T03:59:04;92802.43;;;5.39;100.00
10718;BME280;13513;42.700;23.124;2022-12-07T04:01:38;92800.02;;;5.38;100.00
10718;BME280;13513;42.700;23.124;2022-12-07T04:04:09;92806.87;;;5.48;100.00
10718;BME280;13513;42.700;23.124;2022-12-07T04:06:39;92797.41;;;5.38;100.00
10718;BME280;13513;42.700;23.124;2022-12-07T04:09:10;92804.03;;;5.31;100.00
10718;BME280;13513;42.700;23.124;2022-12-07T04:11:41;92809.05;;;5.42;100.00
10718;BME280;13513;42.700;23.124;2022-12-07T04:14:11;92802.91;;;5.12;100.00
10718;BME280;13513;42.700;23.124;2022-12-07T04:16:51;92807.59;;;5.37;100.00
10718;BME280;13513;42.700;23.124;2022-12-07T04:19:23;92815.03;;;5.40;100.00
10718;BME280;13513;42.700;23.124;2022-12-07T04:21:54;92812.54;;;5.54;100.00
10718;BME280;13513;42.700;23.124;2022-12-07T04:24:26;92816.91;;;5.42;100.00
10718;BME280;13513;42.700;23.124;2022-12-07T04:26:56;92804.97;;;5.46;100.00
10718;BME280;13513;42.700;23.124;2022-12-07T04:29:27;92817.11;;;5.49;100.00
10718;BME280;13513;42.700;23.124;2022-12-07T04:31:58;92810.37;;;5.60;100.00
10718;BME280;13513;42.700;23.124;2022-12-07T04:34:31;92808.46;;;5.58;100.00
10718;BME280;13513;42.700;23.124;2022-12-07T04:37:03;92809.06;;;5.60;100.00
10718;BME280;13513;42.700;23.124;2022-12-07T04:39:34;92803.67;;;5.64;100.00
10718;BME280;13513;42.700;23.124;2022-12-07T04:42:05;92801.77;;;5.62;100.00
10718;BME280;13513;42.700;23.124;2022-12-07T04:44:36;92810.20;;;5.73;100.00
10718;BME280;13513;42.700;23.124;2022-12-07T04:47:06;92808.75;;;5.77;100.00
10718;BME280;13513;42.700;23.124;2022-12-07T04:49:36;92812.56;;;5.81;100.00
10718;BME280;13513;42.700;23.124;2022-12-07T04:52:06;92802.52;;;5.87;100.00
10718;BME280;13513;42.700;23.124;2022-12-07T04:54:38;92807.16;;;5.85;100.00
10718;BME280;13513;42.700;23.124;2022-12-07T04:57:09;92818.15;;;5.66;100.00
10718;BME280;13513;42.700;23.124;2022-12-07T04:59:40;92811.09;;;5.67;100.00
10718;BME280;13513;42.700;23.124;2022-12-07T05:02:10;92812.11;;;5.57;100.00
10718;BME280;13513;42.700;23.124;2022-12-07T05:04:41;92809.64;;;5.53;100.00
10718;BME280;13513;42.700;23.124;2022-12-07T05:07:11;92809.79;;;5.40;100.00
10718;BME280;13513;42.700;23.124;2022-12-07T05:09:41;92808.67;;;5.29;100.00
10718;BME280;13513;42.700;23.124;2022-12-07T05:12:12;92809.34;;;5.34;100.00
10718;BME280;13513;42.700;23.124;2022-12-07T05:14:43;92813.13;;;5.38;100.00
10718;BME280;13513;42.700;23.124;2022-12-07T05:17:14;92815.45;;;5.37;100.00
10718;BME280;13513;42.700;23.124;2022-12-07T05:19:45;92812.41;;;5.49;100.00
10718;BME280;13513;42.700;23.124;2022-12-07T05:22:16;92809.77;;;5.58;100.00
10718;BME280;13513;42.700;23.124;2022-12-07T05:24:46;92803.22;;;5.58;100.00
10718;BME280;13513;42.700;23.124;2022-12-07T05:27:21;92797.39;;;5.47;100.00
10718;BME280;13513;42.700;23.124;2022-12-07T05:29:51;92806.71;;;5.43;100.00
10718;BME280;13513;42.700;23.124;2022-12-07T05:32:21;92807.14;;;5.31;100.00
10718;BME280;13513;42.700;23.124;2022-12-07T05:34:52;92807.75;;;5.33;100.00
10718;BME280;13513;42.700;23.124;2022-12-07T05:37:22;92809.48;;;5.30;100.00
10718;BME280;13513;42.700;23.124;2022-12-07T05:39:53;92812.45;;;5.24;100.00
10718;BME280;13513;42.700;23.124;2022-12-07T05:42:24;92798.27;;;5.23;100.00
10718;BME280;13513;42.700;23.124;2022-12-07T05:44:55;92798.27;;;5.23;100.00
10718;BME280;13513;42.700;23.124;2022-12-07T05:47:26;92803.86;;;5.17;100.00
10718;BME280;13513;42.700;23.124;2022-12-07T05:49:57;92803.29;;;5.15;100.00
10718;BME280;13513;42.700;23.124;2022-12-07T05:52:26;92802.77;;;5.16;100.00
10718;BME280;13513;42.700;23.124;2022-12-07T05:54:57;92797.17;;;5.21;100.00
10718;BME280;13513;42.700;23.124;2022-12-07T05:57:28;92798.77;;;5.13;100.00
10718;BME280;13513;42.700;23.124;2022-12-07T06:00:00;92797.98;;;5.22;100.00
10718;BME280;13513;42.700;23.124;2022-12-07T06:02:29;92797.52;;;5.16;100.00
10718;BME280;13513;42.700;23.124;2022-12-07T06:05:00;92797.98;;;5.22;100.00
10718;BME280;13513;42.700;23.124;2022-12-07T06:07:31;92802.05;;;5.27;100.00
10718;BME280;13513;42.700;23.124;2022-12-07T06:10:02;92808.55;;;5.42;100.00
10718;BME280;13513;42.700;23.124;2022-12-07T06:12:33;92808.55;;;5.42;100.00
10718;BME280;13513;42.700;23.124;2022-12-07T06:15:04;92800.02;;;5.47;100.00
10718;BME280;13513;42.700;23.124;2022-12-07T06:17:36;92806.64;;;5.49;100.00
10718;BME280;13513;42.700;23.124;2022-12-07T06:20:09;92806.64;;;5.49;100.00
10718;BME280;13513;42.700;23.124;2022-12-07T06:22:40;92814.50;;;5.40;100.00
10718;BME280;13513;42.700;23.124;2022-12-07T06:25:12;92807.02;;;5.53;100.00
10718;BME280;13513;42.700;23.124;2022-12-07T06:27:43;92814.80;;;5.59;100.00
10718;BME280;13513;42.700;23.124;2022-12-07T06:30:13;92811.17;;;5.69;100.00
10718;BME280;13513;42.700;23.124;2022-12-07T06:32:44;92820.64;;;5.61;100.00
10718;BME280;13513;42.700;23.124;2022-12-07T06:35:14;92823.25;;;5.61;100.00
10718;BME280;13513;42.700;23.124;2022-12-07T06:37:46;92830.76;;;5.67;100.00
10718;BME280;13513;42.700;23.124;2022-12-07T06:40:17;92821.28;;;5.75;100.00
10718;BME280;13513;42.700;23.124;2022-12-07T06:42:48;92830.82;;;5.87;100.00
10718;BME280;13513;42.700;23.124;2022-12-07T06:45:19;92830.82;;;5.87;100.00
10718;BME280;13513;42.700;23.124;2022-12-07T06:47:50;92833.30;;;5.91;100.00
10718;BME280;13513;42.700;23.124;2022-12-07T06:50:21;92829.95;;;5.93;100.00
10718;BME280;13513;42.700;23.124;2022-12-07T06:52:52;92827.25;;;6.00;100.00
10718;BME280;13513;42.700;23.124;2022-12-07T06:55:23;92822.73;;;6.07;100.00
10718;BME280;13513;42.700;23.124;2022-12-07T06:57:53;92829.19;;;6.13;100.00
10718;BME280;13513;42.700;23.124;2022-12-07T07:00:24;92826.26;;;6.21;100.00
10718;BME280;13513;42.700;23.124;2022-12-07T07:02:55;92825.91;;;6.09;100.00
10718;BME280;13513;42.700;23.124;2022-12-07T07:05:25;92829.53;;;6.26;100.00
10718;BME280;13513;42.700;23.124;2022-12-07T07:07:56;92823.70;;;6.33;100.00
10718;BME280;13513;42.700;23.124;2022-12-07T07:10:27;92831.34;;;6.34;100.00
10718;BME280;13513;42.700;23.124;2022-12-07T07:12:59;92836.05;;;6.44;100.00
10718;BME280;13513;42.700;23.124;2022-12-07T07:15:29;92832.36;;;6.54;100.00
10718;BME280;13513;42.700;23.124;2022-12-07T07:18:01;92832.95;;;6.56;100.00
10718;BME280;13513;42.700;23.124;2022-12-07T07:20:32;92829.45;;;6.53;100.00
10718;BME280;13513;42.700;23.124;2022-12-07T07:23:04;92832.25;;;6.40;100.00
10718;BME280;13513;42.700;23.124;2022-12-07T07:25:36;92822.57;;;6.11;100.00
10718;BME280;13513;42.700;23.124;2022-12-07T07:28:06;92827.77;;;5.90;100.00
10718;BME280;13513;42.700;23.124;2022-12-07T07:30:37;92826.44;;;6.08;100.00
10718;BME280;13513;42.700;23.124;2022-12-07T07:33:08;92831.94;;;6.27;100.00
10718;BME280;13513;42.700;23.124;2022-12-07T07:35:39;92833.66;;;6.33;100.00
10718;BME280;13513;42.700;23.124;2022-12-07T07:38:10;92829.17;;;6.52;100.00
10718;BME280;13513;42.700;23.124;2022-12-07T07:40:41;92827.67;;;6.76;100.00
10718;BME280;13513;42.700;23.124;2022-12-07T07:43:12;92829.52;;;6.87;100.00
10718;BME280;13513;42.700;23.124;2022-12-07T07:45:41;92827.81;;;6.81;100.00
10718;BME280;13513;42.700;23.124;2022-12-07T07:48:12;92828.13;;;6.94;100.00
10718;BME280;13513;42.700;23.124;2022-12-07T07:50:43;92820.75;;;6.93;100.00
10718;BME280;13513;42.700;23.124;2022-12-07T07:53:14;92826.53;;;7.04;100.00
10718;BME280;13513;42.700;23.124;2022-12-07T07:55:54;92824.19;;;7.17;100.00
10718;BME280;13513;42.700;23.124;2022-12-07T07:58:24;92827.27;;;7.02;100.00
10718;BME280;13513;42.700;23.124;2022-12-07T08:00:55;92822.56;;;6.81;100.00
10718;BME280;13513;42.700;23.124;2022-12-07T08:03:26;92821.27;;;6.72;100.00
10718;BME280;13513;42.700;23.124;2022-12-07T08:05:57;92822.84;;;6.82;100.00
10718;BME280;13513;42.700;23.124;2022-12-07T08:08:28;92816.37;;;6.96;100.00
10718;BME280;13513;42.700;23.124;2022-12-07T08:10:58;92818.94;;;7.05;100.00
10718;BME280;13513;42.700;23.124;2022-12-07T08:13:29;92820.98;;;6.92;100.00
10718;BME280;13513;42.700;23.124;2022-12-07T08:16:05;92824.33;;;6.90;100.00
10718;BME280;13513;42.700;23.124;2022-12-07T08:18:39;92821.78;;;6.92;100.00
10718;BME280;13513;42.700;23.124;2022-12-07T08:21:11;92822.64;;;7.18;100.00
10718;BME280;13513;42.700;23.124;2022-12-07T08:23:43;92822.09;;;7.39;100.00
10718;BME280;13513;42.700;23.124;2022-12-07T08:26:15;92825.86;;;7.43;100.00
10718;BME280;13513;42.700;23.124;2022-12-07T08:28:46;92821.41;;;7.44;100.00
10718;BME280;13513;42.700;23.124;2022-12-07T08:31:18;92822.39;;;7.66;100.00
10718;BME280;13513;42.700;23.124;2022-12-07T08:33:50;92823.22;;;7.80;100.00
10718;BME280;13513;42.700;23.124;2022-12-07T08:36:20;92755.13;;;7.42;100.00
10718;BME280;13513;42.700;23.124;2022-12-07T08:38:51;92816.84;;;8.42;100.00
10718;BME280;13513;42.700;23.124;2022-12-07T08:41:20;92822.36;;;9.01;100.00
10718;BME280;13513;42.700;23.124;2022-12-07T08:43:52;92817.97;;;9.07;100.00
10718;BME280;13513;42.700;23.124;2022-12-07T08:46:29;92816.05;;;9.19;100.00
10718;BME280;13513;42.700;23.124;2022-12-07T08:49:03;92806.02;;;9.35;100.00
10718;BME280;13513;42.700;23.124;2022-12-07T08:51:33;92810.05;;;9.75;100.00
10718;BME280;13513;42.700;23.124;2022-12-07T08:54:06;92802.05;;;10.08;100.00
10718;BME280;13513;42.700;23.124;2022-12-07T08:56:37;92803.11;;;10.31;100.00
10718;BME280;13513;42.700;23.124;2022-12-07T08:59:08;92802.39;;;9.95;100.00
10718;BME280;13513;42.700;23.124;2022-12-07T09:01:39;92795.86;;;10.99;100.00
10718;BME280;13513;42.700;23.124;2022-12-07T09:04:10;92795.64;;;12.25;95.87
10718;BME280;13513;42.700;23.124;2022-12-07T09:06:41;92787.59;;;12.79;89.46
10718;BME280;13513;42.700;23.124;2022-12-07T09:09:13;92782.55;;;12.78;82.86
10718;BME280;13513;42.700;23.124;2022-12-07T09:11:44;92778.56;;;11.98;89.77
10718;BME280;13513;42.700;23.124;2022-12-07T09:14:15;92768.94;;;11.38;91.82
10718;BME280;13513;42.700;23.124;2022-12-07T09:16:46;92768.14;;;10.72;97.29
10718;BME280;13513;42.700;23.124;2022-12-07T09:19:17;92767.73;;;11.17;97.73
10718;BME280;13513;42.700;23.124;2022-12-07T09:21:48;92767.73;;;11.58;95.20
10718;BME280;13513;42.700;23.124;2022-12-07T09:24:19;92772.16;;;11.43;94.57
10718;BME280;13513;42.700;23.124;2022-12-07T09:26:50;92764.38;;;11.29;96.70
10718;BME280;13513;42.700;23.124;2022-12-07T09:29:23;92759.77;;;11.51;96.83
10718;BME280;13513;42.700;23.124;2022-12-07T09:31:54;92762.63;;;11.83;97.71
10718;BME280;13513;42.700;23.124;2022-12-07T09:34:25;92765.50;;;12.46;91.60
10718;BME280;13513;42.700;23.124;2022-12-07T09:36:55;92764.27;;;12.91;89.46
10718;BME280;13513;42.700;23.124;2022-12-07T09:39:26;92748.66;;;13.47;85.66
10718;BME280;13513;42.700;23.124;2022-12-07T09:41:58;92752.90;;;13.36;79.89
10718;BME280;13513;42.700;23.124;2022-12-07T09:44:30;92750.77;;;13.55;84.04
10718;BME280;13513;42.700;23.124;2022-12-07T09:47:03;92745.09;;;13.94;78.85
10718;BME280;13513;42.700;23.124;2022-12-07T09:49:36;92753.37;;;13.75;76.38
10718;BME280;13513;42.700;23.124;2022-12-07T09:52:20;92746.80;;;13.25;80.75
10718;BME280;13513;42.700;23.124;2022-12-07T09:54:51;92749.12;;;12.57;85.60
10718;BME280;13513;42.700;23.124;2022-12-07T09:57:30;92748.28;;;11.77;88.71
10718;BME280;13513;42.700;23.124;2022-12-07T10:00:16;92740.73;;;11.15;92.39
10718;BME280;13513;42.700;23.124;2022-12-07T10:02:56;92738.07;;;10.81;96.18
10718;BME280;13513;42.700;23.124;2022-12-07T10:05:36;92736.91;;;10.40;100.00
10718;BME280;13513;42.700;23.124;2022-12-07T10:08:07;92732.70;;;10.15;100.00
10718;BME280;13513;42.700;23.124;2022-12-07T10:10:41;92727.56;;;10.28;100.00
10718;BME280;13513;42.700;23.124;2022-12-07T10:13:13;92733.31;;;10.01;100.00
10718;BME280;13513;42.700;23.124;2022-12-07T10:15:54;92726.34;;;10.14;100.00
10718;BME280;13513;42.700;23.124;2022-12-07T10:18:35;92728.18;;;10.13;100.00
10718;BME280;13513;42.700;23.124;2022-12-07T10:21:16;92727.86;;;9.86;100.00
10718;BME280;13513;42.700;23.124;2022-12-07T10:24:01;92722.63;;;9.29;100.00
10718;BME280;13513;42.700;23.124;2022-12-07T10:26:35;92719.83;;;9.57;100.00
10718;BME280;13513;42.700;23.124;2022-12-07T10:29:24;92717.88;;;9.69;100.00
10718;BME280;13513;42.700;23.124;2022-12-07T10:31:57;92715.17;;;9.85;100.00
10718;BME280;13513;42.700;23.124;2022-12-07T10:34:30;92706.56;;;10.16;100.00
10718;BME280;13513;42.700;23.124;2022-12-07T10:37:19;92705.91;;;10.31;100.00
10718;BME280;13513;42.700;23.124;2022-12-07T10:39:54;92706.46;;;10.30;100.00
10718;BME280;13513;42.700;23.124;2022-12-07T10:42:27;92708.77;;;10.24;100.00
10718;BME280;13513;42.700;23.124;2022-12-07T10:47:59;92696.96;;;10.95;100.00
10718;BME280;13513;42.700;23.124;2022-12-07T10:53:16;92689.80;;;10.56;100.00
10718;BME280;13513;42.700;23.124;2022-12-07T11:01:19;92673.27;;;10.71;100.00
10718;BME280;13513;42.700;23.124;2022-12-07T11:04:02;92671.88;;;10.63;100.00
10718;BME280;13513;42.700;23.124;2022-12-07T11:06:41;92669.58;;;10.74;100.00
10718;BME280;13513;42.700;23.124;2022-12-07T11:12:14;92662.36;;;10.62;100.00
10718;BME280;13513;42.700;23.124;2022-12-07T11:17:22;92651.35;;;10.75;100.00
10718;BME280;13513;42.700;23.124;2022-12-07T11:22:51;92649.66;;;11.45;97.73
10718;BME280;13513;42.700;23.124;2022-12-07T11:25:40;92653.28;;;11.80;96.56
10718;BME280;13513;42.700;23.124;2022-12-07T11:28:28;92652.05;;;12.20;92.64
10718;BME280;13513;42.700;23.124;2022-12-07T11:33:58;92643.63;;;12.69;88.56
10718;BME280;13513;42.700;23.124;2022-12-07T11:36:39;92634.08;;;13.10;84.59
10718;BME280;13513;42.700;23.124;2022-12-07T11:42:12;92632.47;;;12.87;82.76
10718;BME280;13513;42.700;23.124;2022-12-07T11:44:51;92633.83;;;12.57;81.43
10718;BME280;13513;42.700;23.124;2022-12-07T11:47:30;92636.45;;;12.27;84.52
10718;BME280;13513;42.700;23.124;2022-12-07T11:52:52;92625.44;;;11.68;89.31
10718;BME280;13513;42.700;23.124;2022-12-07T11:55:44;92621.82;;;11.96;88.84
10718;BME280;13513;42.700;23.124;2022-12-07T12:04:00;92621.98;;;11.62;90.75
10718;BME280;13513;42.700;23.124;2022-12-07T12:06:29;92623.19;;;11.37;92.42
10718;BME280;13513;42.700;23.124;2022-12-07T12:09:11;92613.76;;;11.02;94.79
10718;BME280;13513;42.700;23.124;2022-12-07T12:14:37;92602.41;;;11.09;94.72
10718;BME280;13513;42.700;23.124;2022-12-07T12:17:25;92601.88;;;11.07;96.10
10718;BME280;13513;42.700;23.124;2022-12-07T12:22:50;92598.42;;;11.04;95.63
10718;BME280;13513;42.700;23.124;2022-12-07T12:25:23;92596.53;;;10.97;96.76
10718;BME280;13513;42.700;23.124;2022-12-07T12:27:52;92596.63;;;10.68;97.83
10718;BME280;13513;42.700;23.124;2022-12-07T12:30:30;92591.46;;;10.88;98.85
10718;BME280;13513;42.700;23.124;2022-12-07T12:33:28;92587.93;;;11.22;94.94
10718;BME280;13513;42.700;23.124;2022-12-07T12:36:27;92582.97;;;11.40;94.23
10718;BME280;13513;42.700;23.124;2022-12-07T12:39:12;92578.25;;;10.88;94.78
10718;BME280;13513;42.700;23.124;2022-12-07T12:41:53;92574.61;;;10.97;95.21
10718;BME280;13513;42.700;23.124;2022-12-07T12:47:37;92579.23;;;11.29;94.31
10718;BME280;13513;42.700;23.124;2022-12-07T12:49:44;92574.61;;;10.97;95.19
10718;BME280;13513;42.700;23.124;2022-12-07T12:55:13;92581.88;;;10.77;97.37
10718;BME280;13513;42.700;23.124;2022-12-07T12:57:44;92583.55;;;10.91;96.55
10718;BME280;13513;42.700;23.124;2022-12-07T13:00:17;92574.27;;;10.83;98.72
10718;BME280;13513;42.700;23.124;2022-12-07T13:02:54;92572.20;;;10.51;100.00
10718;BME280;13513;42.700;23.124;2022-12-07T13:05:27;92569.80;;;10.47;100.00
10718;BME280;13513;42.700;23.124;2022-12-07T13:08:02;92572.77;;;10.56;100.00
10718;BME280;13513;42.700;23.124;2022-12-07T13:10:35;92574.12;;;10.63;100.00
10718;BME280;13513;42.700;23.124;2022-12-07T13:15:51;92567.80;;;10.25;100.00
10718;BME280;13513;42.700;23.124;2022-12-07T13:26:22;92559.63;;;10.00;100.00
10718;BME280;13513;42.700;23.124;2022-12-07T13:29:05;92559.62;;;9.98;100.00
10718;BME280;13513;42.700;23.124;2022-12-07T13:33:57;92559.07;;;9.98;100.00
10718;BME280;13513;42.700;23.124;2022-12-07T13:36:38;92560.97;;;10.03;100.00
10718;BME280;13513;42.700;23.124;2022-12-07T13:39:20;92556.58;;;10.11;100.00
10718;BME280;13513;42.700;23.124;2022-12-07T13:41:54;92566.20;;;10.27;100.00
10718;BME280;13513;42.700;23.124;2022-12-07T13:44:26;92564.50;;;10.45;100.00
10718;BME280;13513;42.700;23.124;2022-12-07T13:47:11;92558.95;;;10.44;100.00
10718;BME280;13513;42.700;23.124;2022-12-07T13:50:15;92565.54;;;10.41;100.00
10718;BME280;13513;42.700;23.124;2022-12-07T13:52:28;92563.53;;;10.58;97.99
10718;BME280;13513;42.700;23.124;2022-12-07T13:57:38;92561.47;;;10.26;99.21
10718;BME280;13513;42.700;23.124;2022-12-07T14:00:25;92551.86;;;10.13;99.75
10718;BME280;13513;42.700;23.124;2022-12-07T14:03:01;92554.54;;;10.20;98.87
10718;BME280;13513;42.700;23.124;2022-12-07T14:05:34;92553.67;;;10.44;96.71
10718;BME280;13513;42.700;23.124;2022-12-07T14:10:54;92551.52;;;10.82;93.77
10718;BME280;13513;42.700;23.124;2022-12-07T14:16:01;92564.88;;;11.10;92.90
10718;BME280;13513;42.700;23.124;2022-12-07T14:18:39;92562.91;;;10.88;91.90
10718;BME280;13513;42.700;23.124;2022-12-07T14:21:16;92566.58;;;10.79;91.31
10718;BME280;13513;42.700;23.124;2022-12-07T14:24:34;92568.45;;;10.86;90.93
10718;BME280;13513;42.700;23.124;2022-12-07T14:26:22;92569.27;;;10.89;90.00
10718;BME280;13513;42.700;23.124;2022-12-07T14:28:59;92570.73;;;10.70;90.08
10718;BME280;13513;42.700;23.124;2022-12-07T14:31:25;92573.05;;;10.62;91.20
10718;BME280;13513;42.700;23.124;2022-12-07T14:34:00;92570.94;;;10.59;90.85
10718;BME280;13513;42.700;23.124;2022-12-07T14:36:31;92572.52;;;10.57;90.68
10718;BME280;13513;42.700;23.124;2022-12-07T14:39:02;92567.97;;;10.50;91.37
10718;BME280;13513;42.700;23.124;2022-12-07T14:41:33;92568.80;;;10.56;90.98
10718;BME280;13513;42.700;23.124;2022-12-07T14:44:23;92568.45;;;10.42;91.91
10718;BME280;13513;42.700;23.124;2022-12-07T14:46:54;92569.52;;;10.44;91.27
10718;BME280;13513;42.700;23.124;2022-12-07T14:49:25;92567.47;;;10.53;91.51
10718;BME280;13513;42.700;23.124;2022-12-07T14:51:55;92569.41;;;10.31;92.03
10718;BME280;13513;42.700;23.124;2022-12-07T14:54:29;92561.23;;;10.30;92.64
10718;BME280;13513;42.700;23.124;2022-12-07T14:56:59;92564.97;;;10.37;92.95